Time;durP1;ratioP1;P1;durP2;ratioP2;P2;SDS_P1;SDS_P2;PMS_P1;PMS_P2;Temp;Humidity;BMP_temperature;BMP_pressure;BME280_temperature;BME280_humidity;BME280_pressure;Samples;Min_cycle;Max_cycle;Signal;HPM_P1;HPM_P2
2022/05/25 00:00:00;;;;;;;2.33;1.63;;;22.00;99.90;;;;;;4192255;28;20576;-78
2022/05/25 00:02:03;;;;;;;1.98;1.48;;;22.00;99.90;;;;;;4191570;28;20283;-78
2022/05/25 00:04:07;;;;;;;3.03;1.88;;;22.00;99.90;;;;;;4191027;28;20239;-78
2022/05/25 00:06:11;;;;;;;2.63;1.80;;;22.00;99.90;;;;;;4192016;28;20261;-78
2022/05/25 00:08:14;;;;;;;2.70;1.52;;;22.00;99.90;;;;;;4191540;28;20219;-77
2022/05/25 00:10:17;;;;;;;3.00;1.95;;;22.00;99.90;;;;;;4191375;28;20580;-78
2022/05/25 00:12:20;;;;;;;3.38;2.00;;;22.00;99.90;;;;;;4191708;28;20974;-78
2022/05/25 00:14:22;;;;;;;3.15;1.83;;;22.00;99.90;;;;;;4191663;28;20227;-78
2022/05/25 00:16:24;;;;;;;2.55;1.70;;;22.00;99.90;;;;;;4191722;28;20215;-78
2022/05/25 00:18:27;;;;;;;3.78;1.67;;;22.00;99.90;;;;;;4191561;28;20261;-78
2022/05/25 00:20:28;;;;;;;3.25;1.92;;;22.00;99.90;;;;;;4192022;28;20292;-78
2022/05/25 00:22:42;;;;;;;3.55;1.60;;;22.00;99.90;;;;;;4192171;28;20214;-78
2022/05/25 00:24:45;;;;;;;2.38;1.80;;;21.90;99.90;;;;;;4191710;28;20324;-78
2022/05/25 00:26:48;;;;;;;2.90;1.70;;;22.00;99.90;;;;;;4191385;28;20215;-78
2022/05/25 00:28:50;;;;;;;2.65;1.70;;;21.90;99.90;;;;;;4190866;28;20268;-78
2022/05/25 00:30:52;;;;;;;2.30;1.70;;;21.90;99.90;;;;;;4190497;28;20384;-78
2022/05/25 00:32:55;;;;;;;4.50;1.90;;;22.00;99.90;;;;;;4192592;28;20203;-78
2022/05/25 00:34:57;;;;;;;4.07;2.00;;;21.90;99.90;;;;;;4191470;28;20264;-78
2022/05/25 00:37:00;;;;;;;2.80;1.58;;;22.00;99.90;;;;;;4191486;28;20236;-78
2022/05/25 00:39:04;;;;;;;3.25;1.65;;;21.90;99.90;;;;;;4190050;28;20284;-78
2022/05/25 00:41:07;;;;;;;2.58;1.88;;;21.90;99.90;;;;;;4190855;28;20219;-78
2022/05/25 00:43:11;;;;;;;4.00;1.60;;;21.90;99.90;;;;;;4190537;28;20231;-78
2022/05/25 00:45:17;;;;;;;1.88;1.38;;;21.90;99.90;;;;;;4190948;28;20223;-78
2022/05/25 00:47:24;;;;;;;2.38;1.55;;;21.90;99.90;;;;;;4190839;28;20263;-78
2022/05/25 00:49:29;;;;;;;1.77;1.50;;;21.90;99.90;;;;;;4190194;28;20272;-78
2022/05/25 00:51:38;;;;;;;4.22;1.80;;;21.90;99.90;;;;;;4190485;28;21046;-78
2022/05/25 00:53:42;;;;;;;1.98;1.42;;;21.90;99.90;;;;;;4189019;28;20256;-78
2022/05/25 00:55:46;;;;;;;3.80;1.77;;;21.90;99.90;;;;;;4188522;28;20287;-78
2022/05/25 00:57:50;;;;;;;3.42;1.77;;;21.90;99.90;;;;;;4191507;28;20631;-78
2022/05/25 00:59:59;;;;;;;2.15;1.50;;;21.90;99.90;;;;;;4191325;28;20223;-78
2022/05/25 01:02:01;;;;;;;2.50;1.80;;;21.90;99.90;;;;;;4190481;28;20214;-78
2022/05/25 01:04:04;;;;;;;2.63;1.67;;;21.80;99.90;;;;;;4189279;28;20239;-79
2022/05/25 01:06:15;;;;;;;2.05;1.83;;;21.90;99.90;;;;;;4190382;28;20269;-78
2022/05/25 01:08:33;;;;;;;2.75;1.90;;;21.80;99.90;;;;;;4190031;28;20708;-78
2022/05/25 01:10:48;;;;;;;3.28;1.67;;;21.80;99.90;;;;;;4192318;28;20226;-78
2022/05/25 01:13:07;;;;;;;3.45;1.70;;;21.80;99.90;;;;;;4194630;28;20276;-78
2022/05/25 01:15:18;;;;;;;2.65;1.70;;;21.80;99.90;;;;;;4194171;28;20223;-78
2022/05/25 01:17:30;;;;;;;3.58;1.90;;;21.90;99.90;;;;;;4194387;28;20272;-78
2022/05/25 01:20:07;;;;;;;4.13;1.60;;;21.80;99.90;;;;;;4193609;28;20663;-78
2022/05/25 01:22:22;;;;;;;3.85;1.45;;;21.80;99.90;;;;;;4142083;28;20221;-78
2022/05/25 01:24:37;;;;;;;2.33;1.45;;;21.80;99.90;;;;;;4176127;28;20239;-78
2022/05/25 01:27:01;;;;;;;2.40;1.70;;;21.80;99.90;;;;;;4192432;28;20284;-78
2022/05/25 01:29:14;;;;;;;2.22;1.50;;;21.80;99.90;;;;;;4194028;28;20219;-78
2022/05/25 01:31:23;;;;;;;3.95;1.55;;;21.80;99.90;;;;;;4193348;28;20297;-78
2022/05/25 01:33:30;;;;;;;2.40;1.58;;;21.80;99.90;;;;;;4193934;28;20207;-78
2022/05/25 01:35:42;;;;;;;1.50;1.40;;;21.80;99.90;;;;;;4194351;28;20253;-78
2022/05/25 01:37:52;;;;;;;2.72;1.70;;;21.80;99.90;;;;;;4194288;28;20304;-78
2022/05/25 01:40:01;;;;;;;2.65;1.80;;;21.80;99.90;;;;;;4192469;28;20226;-78
2022/05/25 01:42:10;;;;;;;2.70;1.55;;;21.80;99.90;;;;;;4193528;28;20219;-78
2022/05/25 01:44:18;;;;;;;2.03;1.48;;;21.80;99.90;;;;;;4192674;28;20643;-78
2022/05/25 01:46:24;;;;;;;2.00;1.50;;;21.80;99.90;;;;;;4192799;28;20273;-78
2022/05/25 01:48:28;;;;;;;2.53;1.65;;;21.80;99.90;;;;;;4193276;28;20215;-79
2022/05/25 01:50:35;;;;;;;1.85;1.52;;;21.80;99.90;;;;;;4192886;28;20211;-78
2022/05/25 01:52:42;;;;;;;3.33;1.42;;;21.80;99.90;;;;;;4192656;28;20219;-78
2022/05/25 01:54:53;;;;;;;3.17;1.55;;;21.70;99.90;;;;;;4192938;28;20257;-78
2022/05/25 01:56:58;;;;;;;2.20;1.60;;;21.70;99.90;;;;;;4192750;28;20207;-79
2022/05/25 01:59:04;;;;;;;2.58;1.63;;;21.70;99.90;;;;;;4193097;28;20231;-78
2022/05/25 02:01:09;;;;;;;2.70;1.48;;;21.70;99.90;;;;;;4192627;28;20207;-79
2022/05/25 02:05:35;;;;;;;1.70;1.48;;;21.80;99.90;;;;;;4193116;28;20582;-78
2022/05/25 02:07:50;;;;;;;2.35;1.40;;;21.70;99.90;;;;;;4192947;28;20219;-78
2022/05/25 02:10:08;;;;;;;1.98;1.67;;;21.70;99.90;;;;;;4192191;28;20741;-78
2022/05/25 02:12:25;;;;;;;1.90;1.50;;;21.70;99.90;;;;;;4192879;28;20219;-78
2022/05/25 02:14:34;;;;;;;2.00;1.48;;;21.70;99.90;;;;;;4192476;28;20276;-78
2022/05/25 02:16:46;;;;;;;2.28;1.40;;;21.70;99.90;;;;;;4192860;28;20615;-78
2022/05/25 02:18:57;;;;;;;2.95;1.50;;;21.70;99.90;;;;;;4192371;28;20547;-78
2022/05/25 02:21:04;;;;;;;3.50;1.38;;;21.70;99.90;;;;;;4192441;28;20244;-78
2022/05/25 02:23:14;;;;;;;2.60;1.48;;;21.70;99.90;;;;;;4192152;28;20663;-78
2022/05/25 02:25:23;;;;;;;3.08;1.52;;;21.70;99.90;;;;;;4193203;28;20568;-78
2022/05/25 02:27:30;;;;;;;3.20;1.63;;;21.70;99.90;;;;;;4192825;28;20215;-79
2022/05/25 02:29:38;;;;;;;2.28;1.55;;;21.70;99.90;;;;;;4192724;28;20620;-78
2022/05/25 02:31:46;;;;;;;1.80;1.52;;;21.60;99.90;;;;;;4192369;28;20222;-78
2022/05/25 02:33:53;;;;;;;2.63;1.33;;;21.70;99.90;;;;;;4190480;28;20671;-78
2022/05/25 02:35:57;;;;;;;2.53;1.73;;;21.70;99.90;;;;;;4191904;28;20265;-78
2022/05/25 02:38:02;;;;;;;3.53;1.60;;;21.60;99.90;;;;;;4191097;28;20227;-78
2022/05/25 02:40:08;;;;;;;2.40;1.27;;;21.60;99.90;;;;;;4192303;28;20280;-79
2022/05/25 02:42:14;;;;;;;2.53;1.23;;;21.70;99.90;;;;;;4192740;28;20237;-78
2022/05/25 02:44:17;;;;;;;2.42;1.48;;;21.60;99.90;;;;;;4192099;28;20391;-78
2022/05/25 02:46:20;;;;;;;2.45;1.60;;;21.60;99.90;;;;;;4191504;28;20282;-78
2022/05/25 02:48:22;;;;;;;2.90;1.48;;;21.60;99.90;;;;;;4192501;28;20223;-78
2022/05/25 02:50:26;;;;;;;2.75;1.52;;;21.60;99.90;;;;;;4192212;28;20847;-78
2022/05/25 02:52:29;;;;;;;2.17;1.48;;;21.70;99.90;;;;;;4192236;28;20261;-78
2022/05/25 02:54:31;;;;;;;4.30;1.70;;;21.60;99.90;;;;;;4191758;28;20211;-78
2022/05/25 02:56:34;;;;;;;2.67;1.48;;;21.60;99.90;;;;;;4191666;28;20224;-78
2022/05/25 02:58:36;;;;;;;1.58;1.23;;;21.60;99.90;;;;;;4191698;28;20215;-78
2022/05/25 03:00:39;;;;;;;3.95;1.60;;;21.60;99.90;;;;;;4192121;28;20280;-78
2022/05/25 03:02:41;;;;;;;2.00;1.40;;;21.60;99.90;;;;;;4192169;28;20219;-78
2022/05/25 03:04:44;;;;;;;2.42;1.45;;;21.60;99.90;;;;;;4191850;28;20285;-78
2022/05/25 03:06:47;;;;;;;1.67;1.40;;;21.60;99.90;;;;;;4191856;28;20219;-78
2022/05/25 03:08:49;;;;;;;3.15;1.45;;;21.60;99.90;;;;;;4191734;28;20292;-78
2022/05/25 03:10:52;;;;;;;2.10;1.50;;;21.60;99.90;;;;;;4191947;28;20284;-78
2022/05/25 03:12:54;;;;;;;2.33;1.33;;;21.60;99.90;;;;;;4192068;28;20744;-78
2022/05/25 03:14:56;;;;;;;2.40;1.65;;;21.60;99.90;;;;;;4192486;28;20211;-78
2022/05/25 03:17:04;;;;;;;2.40;1.30;;;21.50;99.90;;;;;;4191566;28;20215;-78
2022/05/25 03:19:08;;;;;;;2.95;1.52;;;21.50;99.90;;;;;;4190842;28;20284;-78
2022/05/25 03:21:10;;;;;;;3.40;1.50;;;21.60;99.90;;;;;;4191811;28;20215;-78
2022/05/25 03:23:17;;;;;;;2.65;1.55;;;21.60;99.90;;;;;;4192042;28;20614;-78
2022/05/25 03:25:19;;;;;;;4.20;1.52;;;21.50;99.90;;;;;;4191336;28;20284;-78
2022/05/25 03:27:22;;;;;;;3.88;1.65;;;21.60;99.90;;;;;;4192108;28;20276;-78
2022/05/25 03:29:24;;;;;;;2.38;1.30;;;21.50;99.90;;;;;;4191812;28;20643;-78
2022/05/25 03:31:27;;;;;;;2.78;1.20;;;21.60;99.90;;;;;;4191415;28;20226;-78
2022/05/25 03:33:29;;;;;;;2.25;1.63;;;21.50;99.90;;;;;;4190663;28;20235;-78
2022/05/25 03:35:32;;;;;;;3.03;1.30;;;21.50;99.90;;;;;;4192160;28;20618;-78
2022/05/25 03:37:34;;;;;;;2.28;1.30;;;21.50;99.90;;;;;;4191179;28;20699;-78
2022/05/25 03:39:38;;;;;;;2.15;1.17;;;21.60;99.90;;;;;;4191930;28;20227;-78
2022/05/25 03:41:40;;;;;;;2.03;1.40;;;21.50;99.90;;;;;;4190390;28;20814;-79
2022/05/25 03:43:42;;;;;;;3.30;1.42;;;21.50;99.90;;;;;;4191806;28;20272;-78
2022/05/25 03:45:45;;;;;;;2.05;1.48;;;21.50;99.90;;;;;;4191609;28;20769;-78
2022/05/25 03:47:47;;;;;;;1.60;1.10;;;21.50;99.90;;;;;;4191923;28;20223;-79
2022/05/25 03:49:49;;;;;;;1.98;1.40;;;21.50;99.90;;;;;;4191220;28;20628;-78
2022/05/25 03:51:52;;;;;;;2.50;1.52;;;21.50;99.90;;;;;;4191302;28;20214;-78
2022/05/25 03:53:54;;;;;;;3.88;1.38;;;21.50;99.90;;;;;;4191827;28;20461;-78
2022/05/25 03:55:57;;;;;;;2.30;1.48;;;21.50;99.90;;;;;;4190890;28;20245;-78
2022/05/25 03:58:00;;;;;;;2.10;1.25;;;21.50;99.90;;;;;;4191318;28;20219;-74
2022/05/25 04:00:03;;;;;;;2.33;1.50;;;21.50;99.90;;;;;;4191736;28;20597;-74
2022/05/25 04:02:06;;;;;;;1.85;1.38;;;21.50;99.90;;;;;;4191498;28;20211;-74
2022/05/25 04:04:08;;;;;;;2.45;1.45;;;21.50;99.90;;;;;;4191501;28;20215;-74
2022/05/25 04:06:11;;;;;;;3.72;1.42;;;21.50;99.90;;;;;;4191119;28;20725;-74
2022/05/25 04:08:13;;;;;;;2.70;1.58;;;21.50;99.90;;;;;;4191143;28;20269;-74
2022/05/25 04:10:19;;;;;;;3.53;1.52;;;21.50;99.90;;;;;;4191647;28;20285;-75
2022/05/25 04:12:23;;;;;;;2.72;1.52;;;21.50;99.90;;;;;;4190671;28;20215;-74
2022/05/25 04:14:25;;;;;;;2.65;1.38;;;21.50;99.90;;;;;;4191577;28;20222;-75
2022/05/25 04:16:27;;;;;;;1.70;1.30;;;21.40;99.90;;;;;;4191307;28;20203;-74
2022/05/25 04:18:30;;;;;;;3.20;1.40;;;21.40;99.90;;;;;;4191684;28;20226;-74
2022/05/25 04:20:33;;;;;;;2.53;1.30;;;21.40;99.90;;;;;;4191187;28;20671;-75
2022/05/25 04:22:36;;;;;;;2.80;1.40;;;21.40;99.90;;;;;;4187844;28;20276;-75
2022/05/25 04:24:38;;;;;;;2.28;1.40;;;21.40;99.90;;;;;;4190704;28;20215;-75
2022/05/25 04:26:41;;;;;;;1.85;1.20;;;21.40;99.90;;;;;;4190860;28;20264;-74
2022/05/25 04:28:45;;;;;;;5.10;1.30;;;21.40;99.90;;;;;;4190618;28;20207;-74
2022/05/25 04:30:48;;;;;;;2.53;1.50;;;21.40;99.90;;;;;;4190591;28;20620;-74
2022/05/25 04:32:50;;;;;;;1.98;1.20;;;21.40;99.90;;;;;;4191096;28;20607;-75
2022/05/25 04:34:53;;;;;;;2.15;1.40;;;21.40;99.90;;;;;;4191376;28;20268;-74
2022/05/25 04:37:48;;;;;;;1.45;1.02;;;21.40;99.90;;;;;;4191267;28;20226;-75
2022/05/25 04:39:18;;;;;;;4.05;1.50;;;21.30;99.90;;;;;;4191261;28;20219;-74
2022/05/25 04:41:21;;;;;;;1.88;1.45;;;21.40;99.90;;;;;;4190953;28;20272;-74
2022/05/25 04:43:24;;;;;;;1.77;1.20;;;21.40;99.90;;;;;;4190797;28;20219;-74
2022/05/25 04:45:29;;;;;;;1.73;1.20;;;21.40;99.90;;;;;;4190340;28;20284;-74
2022/05/25 04:47:33;;;;;;;2.38;1.20;;;21.40;99.90;;;;;;4190945;28;20237;-74
2022/05/25 04:49:36;;;;;;;2.85;1.20;;;21.40;99.90;;;;;;4191159;28;20824;-74
2022/05/25 04:51:38;;;;;;;1.83;1.27;;;21.40;99.90;;;;;;4191412;28;20269;-75
2022/05/25 04:53:42;;;;;;;2.00;1.15;;;21.30;99.90;;;;;;4191203;28;20230;-75
2022/05/25 04:58:04;;;;;;;1.77;1.10;;;21.40;99.90;;;;;;4191373;28;20199;-74
2022/05/25 05:00:08;;;;;;;1.67;1.10;;;21.40;99.90;;;;;;4191027;28;20272;-74
2022/05/25 05:02:12;;;;;;;2.40;1.45;;;21.40;99.90;;;;;;4190821;28;20211;-74
2022/05/25 05:04:14;;;;;;;3.20;1.50;;;21.40;99.90;;;;;;4190590;28;20211;-75
2022/05/25 05:06:16;;;;;;;1.67;1.20;;;21.40;99.90;;;;;;4191038;28;20637;-78
2022/05/25 05:08:19;;;;;;;2.42;1.23;;;21.40;99.90;;;;;;4191275;28;20219;-78
2022/05/25 05:10:21;;;;;;;2.28;1.25;;;21.30;99.90;;;;;;4191418;28;20223;-78
2022/05/25 05:12:24;;;;;;;2.60;1.48;;;21.40;99.90;;;;;;4190511;28;20623;-78
2022/05/25 05:14:26;;;;;;;1.60;1.15;;;21.40;99.90;;;;;;4191134;28;20264;-78
2022/05/25 05:16:28;;;;;;;1.77;1.15;;;21.40;99.90;;;;;;4191258;28;20308;-78
2022/05/25 05:18:32;;;;;;;2.15;1.33;;;21.40;99.90;;;;;;4190967;28;20223;-78
2022/05/25 05:20:34;;;;;;;1.98;1.10;;;21.40;99.90;;;;;;4190070;28;20207;-79
2022/05/25 05:22:37;;;;;;;2.22;1.00;;;21.40;99.90;;;;;;4191228;28;20245;-78
2022/05/25 05:24:40;;;;;;;1.90;1.27;;;21.40;99.90;;;;;;4190501;28;20236;-78
2022/05/25 05:26:43;;;;;;;2.00;1.10;;;21.40;99.90;;;;;;4190465;28;20239;-78
2022/05/25 05:28:45;;;;;;;1.98;1.10;;;21.40;99.90;;;;;;4189650;28;20207;-78
2022/05/25 05:30:50;;;;;;;1.55;0.98;;;21.40;99.90;;;;;;4190775;28;20308;-78
2022/05/25 05:32:52;;;;;;;2.30;1.10;;;21.40;99.90;;;;;;4190430;28;20215;-78
2022/05/25 05:34:56;;;;;;;1.67;1.15;;;21.40;99.90;;;;;;4191049;28;20215;-78
2022/05/25 05:37:02;;;;;;;1.60;1.10;;;21.40;99.90;;;;;;4190571;28;20215;-78
2022/05/25 05:39:06;;;;;;;1.83;1.30;;;21.40;99.90;;;;;;4190189;28;20605;-78
2022/05/25 05:41:09;;;;;;;1.52;1.10;;;21.40;99.90;;;;;;4190306;28;20277;-78
2022/05/25 05:43:12;;;;;;;2.33;1.20;;;21.40;99.90;;;;;;4190842;28;20647;-78
2022/05/25 05:45:18;;;;;;;2.20;1.10;;;21.50;99.90;;;;;;4190918;28;20207;-78
2022/05/25 05:47:24;;;;;;;2.45;1.27;;;21.50;99.90;;;;;;4190867;28;20235;-78
2022/05/25 05:49:26;;;;;;;1.77;1.20;;;21.50;99.90;;;;;;4190788;28;20211;-79
2022/05/25 05:51:30;;;;;;;1.52;0.95;;;21.40;99.90;;;;;;4190773;28;20989;-78
2022/05/25 05:53:34;;;;;;;3.38;1.42;;;21.40;99.90;;;;;;4190718;28;20227;-78
2022/05/25 05:55:37;;;;;;;1.42;1.08;;;21.50;99.90;;;;;;4173579;28;20277;-79
2022/05/25 05:57:39;;;;;;;4.13;1.23;;;21.50;99.90;;;;;;4193307;28;20215;-78
2022/05/25 05:59:47;;;;;;;1.60;1.02;;;21.50;99.90;;;;;;4193349;28;20265;-78
2022/05/25 06:01:50;;;;;;;1.35;1.00;;;21.40;99.90;;;;;;4193065;28;20223;-79
2022/05/25 06:03:52;;;;;;;1.90;1.10;;;21.40;99.90;;;;;;4192941;28;20282;-78
2022/05/25 06:05:55;;;;;;;1.25;1.13;;;21.40;99.90;;;;;;4193431;28;21637;-79
2022/05/25 06:08:07;;;;;;;1.98;1.20;;;21.50;99.90;;;;;;4192627;28;20281;-78
2022/05/25 06:10:11;;;;;;;2.35;1.02;;;21.50;99.90;;;;;;4189360;28;20679;-78
2022/05/25 06:12:14;;;;;;;3.33;1.30;;;21.50;99.90;;;;;;4193318;28;20602;-78
2022/05/25 06:14:16;;;;;;;1.30;0.98;;;21.50;99.90;;;;;;4192063;28;20288;-78
2022/05/25 06:20:59;;;;;;;2.45;1.30;;;21.50;99.90;;;;;;4192944;28;20207;-78
2022/05/25 06:23:03;;;;;;;2.17;1.00;;;21.50;99.90;;;;;;4191916;28;20949;-78
2022/05/25 06:25:07;;;;;;;1.85;1.00;;;21.50;99.90;;;;;;4192565;28;20223;-78
2022/05/25 06:27:11;;;;;;;2.03;1.00;;;21.50;99.90;;;;;;4192919;28;20235;-78
2022/05/25 06:29:16;;;;;;;1.38;1.00;;;21.50;99.90;;;;;;4193038;28;20272;-79
2022/05/25 06:31:19;;;;;;;2.85;1.23;;;21.50;99.90;;;;;;4192482;28;20219;-78
2022/05/25 06:33:21;;;;;;;1.55;1.15;;;21.50;99.90;;;;;;4192689;28;20231;-78
2022/05/25 06:35:24;;;;;;;1.63;1.10;;;21.50;99.90;;;;;;4192598;28;20272;-78
2022/05/25 06:37:26;;;;;;;1.80;0.90;;;21.50;99.90;;;;;;4192012;28;20223;-78
2022/05/25 06:39:35;;;;;;;1.90;1.30;;;21.50;99.90;;;;;;4191952;28;20218;-79
2022/05/25 06:41:37;;;;;;;1.73;0.93;;;21.50;99.90;;;;;;4191104;28;20218;-79
2022/05/25 06:43:40;;;;;;;1.77;1.20;;;21.50;99.90;;;;;;4192272;28;20261;-78
2022/05/25 06:45:42;;;;;;;1.45;1.23;;;21.50;99.90;;;;;;4192453;28;20207;-78
2022/05/25 06:47:45;;;;;;;2.00;1.20;;;21.60;99.90;;;;;;4192109;28;20234;-78
2022/05/25 06:49:47;;;;;;;2.70;1.20;;;21.50;99.90;;;;;;4188207;28;20258;-78
2022/05/25 06:51:50;;;;;;;3.17;1.17;;;21.50;99.90;;;;;;4192018;28;20215;-78
2022/05/25 06:53:52;;;;;;;2.55;1.10;;;21.50;99.90;;;;;;4191310;28;20276;-78
2022/05/25 06:55:56;;;;;;;1.63;1.25;;;21.40;99.90;;;;;;4191092;28;20288;-78
2022/05/25 06:57:58;;;;;;;2.25;0.90;;;21.40;99.90;;;;;;4190990;28;20268;-79
2022/05/25 07:00:00;;;;;;;1.95;1.15;;;21.50;99.90;;;;;;4190044;28;20215;-78
2022/05/25 07:02:04;;;;;;;2.85;1.20;;;21.50;99.90;;;;;;4190562;28;20211;-78
2022/05/25 07:04:07;;;;;;;4.72;1.30;;;21.50;99.90;;;;;;4190256;28;20219;-78
2022/05/25 07:06:12;;;;;;;4.25;1.10;;;21.50;99.90;;;;;;4190565;28;20257;-78
2022/05/25 07:08:14;;;;;;;2.40;1.30;;;21.50;99.90;;;;;;4188575;28;20227;-77
2022/05/25 07:10:17;;;;;;;2.70;1.40;;;21.60;99.90;;;;;;4191713;28;20273;-77
2022/05/25 07:12:20;;;;;;;3.13;1.25;;;21.60;99.90;;;;;;4183309;28;20219;-77
2022/05/25 07:14:23;;;;;;;1.15;0.95;;;21.60;99.90;;;;;;4189993;28;20336;-78
2022/05/25 07:16:25;;;;;;;3.05;1.10;;;21.60;99.90;;;;;;4189785;28;20215;-78
2022/05/25 07:18:28;;;;;;;2.45;1.15;;;21.60;99.90;;;;;;4187020;28;20223;-78
2022/05/25 07:20:30;;;;;;;3.05;1.20;;;21.60;99.90;;;;;;4190698;28;20300;-76
2022/05/25 07:22:33;;;;;;;10.40;1.30;;;21.50;99.90;;;;;;4190872;28;20207;-76
2022/05/25 07:24:35;;;;;;;9.95;1.48;;;21.60;99.90;;;;;;4190089;28;20327;-77
2022/05/25 07:26:38;;;;;;;2.33;1.13;;;21.70;99.90;;;;;;4188212;28;20247;-76
2022/05/25 07:28:41;;;;;;;3.45;1.20;;;21.70;99.90;;;;;;4185813;28;20219;-76
2022/05/25 07:30:44;;;;;;;2.80;1.15;;;21.70;99.90;;;;;;4188316;28;20219;-76
2022/05/25 07:32:47;;;;;;;3.40;1.17;;;21.80;99.90;;;;;;4189638;28;20219;-77
2022/05/25 07:34:55;;;;;;;6.95;1.30;;;21.80;99.90;;;;;;4188227;28;20252;-76
2022/05/25 07:36:59;;;;;;;3.53;1.23;;;21.90;99.90;;;;;;4189310;28;20276;-76
2022/05/25 07:39:04;;;;;;;3.80;1.08;;;22.00;99.90;;;;;;4186549;28;20212;-76
2022/05/25 07:41:07;;;;;;;3.30;1.30;;;22.00;99.90;;;;;;4190286;28;20740;-76
2022/05/25 07:43:13;;;;;;;2.00;1.20;;;22.00;99.90;;;;;;4182395;28;20222;-76
2022/05/25 07:45:20;;;;;;;2.70;1.02;;;22.10;99.90;;;;;;4189669;28;20215;-76
2022/05/25 07:47:23;;;;;;;2.70;1.02;;;22.10;99.90;;;;;;4190450;28;20238;-76
2022/05/25 07:49:26;;;;;;;2.10;1.08;;;22.10;99.90;;;;;;4188172;28;20291;-76
2022/05/25 07:51:29;;;;;;;3.42;1.02;;;22.10;99.90;;;;;;4187825;28;20219;-75
2022/05/25 07:55:52;;;;;;;2.83;1.38;;;22.20;99.90;;;;;;4186296;28;20219;-74
2022/05/25 07:57:54;;;;;;;5.50;1.45;;;22.20;99.90;;;;;;4183038;28;20271;-74
2022/05/25 07:59:57;;;;;;;6.53;1.05;;;22.20;99.90;;;;;;4178615;28;20223;-73
2022/05/25 08:06:50;;;;;;;3.08;1.23;;;22.30;99.90;;;;;;4188099;28;20195;-75
2022/05/25 08:08:53;;;;;;;4.13;1.40;;;22.30;99.90;;;;;;4188398;28;20284;-73
2022/05/25 08:11:02;;;;;;;6.25;1.45;;;22.20;99.90;;;;;;4183660;28;20671;-73
2022/05/25 08:13:05;;;;;;;3.55;1.30;;;22.30;99.90;;;;;;4186870;28;20279;-74
2022/05/25 08:15:09;;;;;;;2.63;1.13;;;22.40;99.90;;;;;;4186128;28;20250;-73
2022/05/25 08:17:13;;;;;;;2.83;1.05;;;22.40;99.90;;;;;;4180735;28;20211;-73
2022/05/25 08:19:15;;;;;;;2.97;1.02;;;22.40;99.90;;;;;;4185058;28;20222;-73
2022/05/25 08:21:18;;;;;;;3.42;1.17;;;22.30;99.90;;;;;;4185791;28;20277;-73
2022/05/25 08:23:20;;;;;;;3.10;1.13;;;22.30;99.90;;;;;;4184065;28;20660;-74
2022/05/25 08:25:22;;;;;;;3.10;1.00;;;22.50;99.90;;;;;;4184637;28;20218;-74
2022/05/25 08:27:25;;;;;;;4.15;1.25;;;22.50;99.90;;;;;;4187298;28;20289;-74
2022/05/25 08:29:27;;;;;;;5.15;1.50;;;22.50;99.90;;;;;;4188797;28;20235;-74
2022/05/25 08:31:29;;;;;;;6.30;1.20;;;22.50;99.90;;;;;;4186132;28;20249;-74
2022/05/25 08:33:33;;;;;;;1.98;1.00;;;22.50;99.90;;;;;;4190563;28;20284;-74
2022/05/25 08:35:36;;;;;;;2.45;1.05;;;22.50;99.90;;;;;;4188790;28;20211;-73
2022/05/25 08:37:38;;;;;;;2.42;1.33;;;22.50;99.90;;;;;;4186247;28;20278;-74
2022/05/25 08:39:41;;;;;;;2.65;1.00;;;22.50;99.90;;;;;;4188466;28;20219;-73
2022/05/25 08:41:47;;;;;;;3.47;1.00;;;22.60;99.90;;;;;;4187451;28;20208;-73
2022/05/25 08:43:54;;;;;;;4.20;1.10;;;22.60;99.90;;;;;;4187164;28;20223;-73
2022/05/25 08:46:06;;;;;;;2.97;1.02;;;22.60;99.90;;;;;;4187690;28;20218;-75
2022/05/25 08:48:11;;;;;;;4.53;1.30;;;22.70;99.90;;;;;;4183800;28;20269;-75
2022/05/25 08:50:17;;;;;;;3.30;1.10;;;22.70;99.90;;;;;;4186276;28;20541;-75
2022/05/25 08:52:24;;;;;;;4.40;1.02;;;22.70;99.90;;;;;;4182579;28;20223;-76
2022/05/25 08:54:31;;;;;;;3.42;1.20;;;22.70;99.90;;;;;;4188076;28;20276;-76
2022/05/25 08:56:40;;;;;;;2.15;1.00;;;22.70;99.90;;;;;;4188352;28;20702;-76
2022/05/25 08:58:47;;;;;;;4.35;1.02;;;22.70;99.90;;;;;;4189914;28;20218;-76
2022/05/25 09:00:53;;;;;;;4.57;1.02;;;22.70;99.90;;;;;;4187220;28;20268;-77
2022/05/25 09:03:04;;;;;;;2.17;1.10;;;22.70;99.90;;;;;;4185852;28;20268;-76
2022/05/25 09:05:16;;;;;;;6.40;1.13;;;22.70;99.90;;;;;;4184809;28;20271;-76
2022/05/25 09:07:28;;;;;;;5.70;1.10;;;22.80;99.90;;;;;;4187201;28;20215;-76
2022/05/25 09:09:37;;;;;;;4.38;1.20;;;22.80;99.90;;;;;;4187126;28;20247;-76
2022/05/25 09:11:44;;;;;;;2.58;0.88;;;22.80;99.90;;;;;;4190147;28;20245;-76
2022/05/25 09:13:53;;;;;;;1.38;1.00;;;22.70;99.90;;;;;;4181674;28;20219;-76
2022/05/25 09:18:17;;;;;;;3.95;1.33;;;22.70;99.90;;;;;;4183852;28;20199;-76
2022/05/25 09:20:24;;;;;;;2.78;1.02;;;22.80;99.90;;;;;;4186310;28;20565;-75
2022/05/25 09:22:30;;;;;;;3.90;1.02;;;22.80;99.90;;;;;;4189859;28;20335;-77
2022/05/25 09:24:34;;;;;;;13.00;1.65;;;22.80;99.90;;;;;;4187623;28;20215;-78
2022/05/25 09:26:37;;;;;;;14.55;1.70;;;22.80;99.90;;;;;;4187603;28;20724;-78
2022/05/25 09:28:44;;;;;;;12.48;2.47;;;22.80;99.90;;;;;;4189285;28;20277;-75
2022/05/25 09:30:52;;;;;;;13.80;1.75;;;22.80;99.90;;;;;;4185010;28;20211;-77
2022/05/25 09:33:00;;;;;;;8.32;1.17;;;22.80;99.90;;;;;;4186017;28;20271;-78
2022/05/25 09:35:08;;;;;;;5.75;1.30;;;22.80;99.90;;;;;;4180617;28;20276;-75
2022/05/25 09:37:15;;;;;;;3.42;1.00;;;22.90;99.90;;;;;;4184575;28;20616;-76
2022/05/25 09:39:25;;;;;;;8.00;1.35;;;22.90;99.90;;;;;;4188613;28;20215;-75
2022/05/25 09:41:31;;;;;;;3.83;1.13;;;22.90;99.90;;;;;;4189248;28;20340;-75
2022/05/25 09:43:35;;;;;;;7.82;1.10;;;23.00;99.90;;;;;;4187315;28;20219;-75
2022/05/25 09:45:45;;;;;;;4.13;1.00;;;23.00;99.90;;;;;;4188282;28;20261;-75
2022/05/25 09:47:50;;;;;;;6.13;1.20;;;23.00;99.90;;;;;;4189735;28;20215;-77
2022/05/25 09:49:55;;;;;;;4.03;1.38;;;23.00;99.90;;;;;;4190907;28;20273;-75
2022/05/25 09:52:03;;;;;;;3.47;1.13;;;23.00;99.90;;;;;;4189530;28;20727;-76
2022/05/25 09:54:12;;;;;;;2.85;1.08;;;23.00;99.90;;;;;;4191747;28;20219;-77
2022/05/25 09:56:22;;;;;;;4.93;1.55;;;23.00;99.90;;;;;;4189589;28;20276;-79
2022/05/25 09:58:32;;;;;;;4.97;1.58;;;23.00;99.90;;;;;;4189297;28;20316;-77
2022/05/25 10:00:48;;;;;;;2.65;1.00;;;23.00;99.90;;;;;;4188544;28;20230;-77
2022/05/25 10:02:59;;;;;;;5.63;1.52;;;23.00;99.90;;;;;;4190151;28;20276;-76
2022/05/25 10:05:15;;;;;;;5.18;1.40;;;23.00;99.90;;;;;;4189326;28;20219;-76
2022/05/25 10:07:21;;;;;;;3.25;1.20;;;22.90;99.90;;;;;;4186933;28;20268;-75
2022/05/25 10:09:26;;;;;;;2.92;1.17;;;22.90;99.90;;;;;;4191856;28;20292;-75
2022/05/25 10:11:32;;;;;;;5.45;1.10;;;22.90;99.90;;;;;;4188842;28;20223;-75
2022/05/25 10:13:40;;;;;;;3.72;1.00;;;23.00;99.90;;;;;;4189425;28;20223;-78
2022/05/25 10:15:42;;;;;;;8.95;1.50;;;23.00;99.90;;;;;;4191116;28;20219;-77
2022/05/25 10:17:47;;;;;;;3.85;1.00;;;22.90;99.90;;;;;;4191353;28;20269;-75
2022/05/25 10:19:52;;;;;;;3.50;1.10;;;23.00;99.90;;;;;;4191275;28;20257;-77
2022/05/25 10:21:59;;;;;;;3.15;1.00;;;23.10;99.90;;;;;;4190361;28;20671;-77
2022/05/25 10:24:03;;;;;;;2.80;0.98;;;23.10;99.90;;;;;;4189895;28;20268;-76
2022/05/25 10:26:12;;;;;;;4.10;1.10;;;23.10;99.90;;;;;;4189226;28;20223;-77
2022/05/25 10:28:33;;;;;;;4.50;1.00;;;23.10;99.90;;;;;;4191227;28;20655;-78
2022/05/25 10:38:02;;;;;;;3.20;1.30;;;23.20;99.90;;;;;;4196209;28;20199;-80
2022/05/25 10:40:09;;;;;;;6.50;1.30;;;23.20;99.90;;;;;;4191558;28;21596;-78
2022/05/25 10:42:18;;;;;;;2.33;1.10;;;23.20;99.90;;;;;;4190554;28;20245;-78
2022/05/25 10:44:27;;;;;;;4.57;1.02;;;23.30;99.90;;;;;;4189103;28;20214;-75
2022/05/25 10:46:32;;;;;;;3.35;1.15;;;23.20;99.90;;;;;;4189894;28;20287;-75
2022/05/25 10:48:44;;;;;;;3.08;0.85;;;23.20;99.90;;;;;;4192053;28;20300;-74
2022/05/25 10:50:58;;;;;;;4.53;1.10;;;23.20;99.90;;;;;;4185006;28;20632;-75
2022/05/25 10:53:07;;;;;;;6.57;1.33;;;23.30;99.90;;;;;;4185551;28;20218;-74
2022/05/25 10:55:13;;;;;;;5.03;1.15;;;23.20;99.90;;;;;;4189423;28;20210;-75
2022/05/25 10:57:47;;;;;;;;;;;;;;;;;;;;;
2022/05/25 11:03:25;;;;;;;3.42;1.00;;;23.30;99.90;;;;;;4158628;28;20294;-74
2022/05/25 11:05:38;;;;;;;4.45;0.80;;;23.30;99.90;;;;;;4172422;28;20215;-76
2022/05/25 11:07:43;;;;;;;5.07;1.20;;;23.30;99.90;;;;;;4188892;28;20284;-74
2022/05/25 11:10:12;;;;;;;4.43;1.00;;;23.30;99.90;;;;;;4189581;28;20230;-74
2022/05/25 11:12:25;;;;;;;6.82;1.25;;;23.30;99.90;;;;;;4153079;28;20223;-74
2022/05/25 11:14:40;;;;;;;6.38;0.98;;;23.30;99.90;;;;;;4184366;28;20256;-74
2022/05/25 11:16:53;;;;;;;4.85;1.20;;;23.30;99.90;;;;;;4184585;28;20215;-75
2022/05/25 11:19:17;;;;;;;3.13;1.05;;;23.30;99.90;;;;;;4189992;28;20280;-75
2022/05/25 11:21:30;;;;;;;3.78;1.02;;;23.30;99.90;;;;;;4188556;28;20697;-75
2022/05/25 11:24:01;;;;;;;3.00;1.10;;;23.30;99.90;;;;;;4187738;28;20288;-74